createdAt,value
2023-04-19T00:02:43.244Z,100.00
2023-04-19T00:05:28.864Z,100.00
2023-04-19T00:08:13.876Z,100.00
2023-04-19T00:10:58.915Z,100.00
2023-04-19T00:13:43.812Z,100.00
2023-04-19T00:16:29.174Z,100.00
2023-04-19T00:19:13.831Z,100.00
2023-04-19T00:21:59.030Z,100.00
2023-04-19T00:24:43.832Z,100.00
2023-04-19T00:27:28.929Z,100.00
2023-04-19T00:30:13.978Z,100.00
2023-04-19T00:32:58.824Z,100.00
2023-04-19T00:35:43.522Z,100.00
2023-04-19T00:38:28.684Z,100.00
2023-04-19T00:41:13.499Z,100.00
2023-04-19T00:43:58.538Z,100.00
2023-04-19T00:46:43.799Z,100.00
2023-04-19T00:49:29.562Z,100.00
2023-04-19T00:52:14.592Z,100.00
2023-04-19T00:55:00.288Z,100.00
2023-04-19T00:57:45.844Z,100.00
2023-04-19T01:00:31.421Z,100.00
2023-04-19T01:03:16.901Z,100.00
2023-04-19T01:06:02.436Z,100.00
2023-04-19T01:08:48.081Z,100.00
2023-04-19T01:11:32.895Z,100.00
2023-04-19T01:14:17.983Z,100.00
2023-04-19T01:17:03.084Z,100.00
2023-04-19T01:19:47.925Z,100.00
2023-04-19T01:22:32.996Z,100.00
2023-04-19T01:25:18.059Z,100.00
2023-04-19T01:28:03.260Z,100.00
2023-04-19T01:30:51.041Z,100.00
2023-04-19T01:33:36.164Z,100.00
2023-04-19T01:36:20.998Z,100.00
2023-04-19T01:39:05.996Z,100.00
2023-04-19T01:41:50.850Z,100.00
2023-04-19T01:44:35.617Z,100.00
2023-04-19T01:47:21.561Z,100.00
2023-04-19T01:50:07.230Z,100.00
2023-04-19T01:52:52.152Z,100.00
2023-04-19T01:55:36.868Z,100.00
2023-04-19T01:58:22.064Z,100.00
2023-04-19T02:01:06.777Z,100.00
2023-04-19T02:03:52.023Z,100.00
2023-04-19T02:06:37.264Z,100.00
2023-04-19T02:09:22.207Z,100.00
2023-04-19T02:12:07.292Z,100.00
2023-04-19T02:14:52.088Z,100.00
2023-04-19T02:17:36.938Z,100.00
2023-04-19T02:20:21.837Z,100.00
2023-04-19T02:23:06.632Z,100.00
2023-04-19T02:25:51.896Z,100.00
2023-04-19T02:28:37.875Z,100.00
2023-04-19T02:31:23.270Z,100.00
2023-04-19T02:34:08.268Z,100.00
2023-04-19T02:36:53.347Z,100.00
2023-04-19T02:39:38.045Z,100.00
2023-04-19T02:42:23.033Z,100.00
2023-04-19T02:45:08.625Z,100.00
2023-04-19T02:47:53.678Z,100.00
2023-04-19T02:50:38.738Z,100.00
2023-04-19T02:53:23.899Z,100.00
2023-04-19T02:56:09.382Z,100.00
2023-04-19T02:58:54.944Z,100.00
2023-04-19T03:01:39.875Z,100.00
2023-04-19T03:04:25.465Z,100.00
2023-04-19T03:07:10.193Z,100.00
2023-04-19T03:09:55.506Z,100.00
2023-04-19T03:12:40.222Z,100.00
2023-04-19T03:15:25.369Z,100.00
2023-04-19T03:18:10.479Z,100.00
2023-04-19T03:20:55.617Z,100.00
2023-04-19T03:23:40.392Z,100.00
2023-04-19T03:26:25.642Z,100.00
2023-04-19T03:29:10.807Z,100.00
2023-04-19T03:31:55.722Z,100.00
2023-04-19T03:34:41.124Z,100.00
2023-04-19T03:37:26.094Z,100.00
2023-04-19T03:40:11.366Z,100.00
2023-04-19T03:42:56.309Z,100.00
2023-04-19T03:45:41.167Z,100.00
2023-04-19T03:48:26.351Z,100.00
2023-04-19T03:51:11.205Z,100.00
2023-04-19T03:53:56.386Z,100.00
2023-04-19T03:56:41.255Z,100.00
2023-04-19T03:59:26.421Z,100.00
2023-04-19T04:02:11.193Z,100.00
2023-04-19T04:04:56.389Z,100.00
2023-04-19T04:07:41.985Z,100.00
2023-04-19T04:10:26.850Z,100.00
2023-04-19T04:13:11.741Z,100.00
2023-04-19T04:15:56.761Z,100.00
2023-04-19T04:18:41.597Z,100.00
2023-04-19T04:21:27.383Z,100.00
2023-04-19T04:24:12.477Z,100.00
2023-04-19T04:26:57.868Z,100.00
2023-04-19T04:29:43.805Z,100.00
2023-04-19T04:32:29.079Z,100.00
2023-04-19T04:35:14.116Z,100.00
2023-04-19T04:37:59.737Z,100.00
2023-04-19T04:40:49.623Z,100.00
2023-04-19T04:43:34.730Z,100.00
2023-04-19T04:46:19.714Z,100.00
2023-04-19T04:49:04.592Z,100.00
2023-04-19T04:51:49.559Z,100.00
2023-04-19T04:54:34.773Z,100.00
2023-04-19T04:57:19.692Z,100.00
2023-04-19T05:00:07.028Z,100.00
2023-04-19T05:02:51.951Z,100.00
2023-04-19T05:05:36.743Z,100.00
2023-04-19T05:08:22.033Z,100.00
2023-04-19T05:11:07.148Z,100.00
2023-04-19T05:13:51.928Z,100.00
2023-04-19T05:16:36.766Z,100.00
2023-04-19T05:19:21.832Z,100.00
2023-04-19T05:22:06.435Z,100.00
2023-04-19T05:24:51.406Z,100.00
2023-04-19T05:27:36.145Z,100.00
2023-04-19T05:30:21.309Z,100.00
2023-04-19T05:33:06.207Z,100.00
2023-04-19T05:35:51.346Z,100.00
2023-04-19T05:38:36.490Z,100.00
2023-04-19T05:41:21.618Z,100.00
2023-04-19T05:44:07.015Z,100.00
2023-04-19T05:46:51.806Z,100.00
2023-04-19T05:49:36.650Z,100.00
2023-04-19T05:52:21.754Z,100.00
2023-04-19T05:55:06.760Z,100.00
2023-04-19T05:57:51.703Z,100.00
2023-04-19T06:00:37.096Z,100.00
2023-04-19T06:03:22.084Z,100.00
2023-04-19T06:06:07.361Z,100.00
2023-04-19T06:08:53.980Z,100.00
2023-04-19T06:11:49.975Z,100.00
2023-04-19T06:14:35.827Z,100.00
2023-04-19T06:17:25.299Z,100.00
2023-04-19T06:20:10.656Z,100.00
2023-04-19T06:22:55.635Z,100.00
2023-04-19T06:25:41.029Z,100.00
2023-04-19T06:28:25.967Z,100.00
2023-04-19T06:31:12.145Z,100.00
2023-04-19T06:33:56.967Z,100.00
2023-04-19T06:36:41.908Z,100.00
2023-04-19T06:39:27.628Z,100.00
2023-04-19T06:42:12.620Z,100.00
2023-04-19T06:44:57.545Z,100.00
2023-04-19T06:47:42.507Z,100.00
2023-04-19T06:50:28.598Z,100.00
2023-04-19T06:53:13.379Z,100.00
2023-04-19T06:56:02.902Z,100.00
2023-04-19T06:58:47.813Z,100.00
2023-04-19T07:01:32.792Z,100.00
2023-04-19T07:04:17.886Z,100.00
2023-04-19T07:07:03.914Z,100.00
2023-04-19T07:09:48.717Z,100.00
2023-04-19T07:12:33.802Z,100.00
2023-04-19T07:15:18.689Z,100.00
2023-04-19T07:18:03.840Z,100.00
2023-04-19T07:20:49.335Z,100.00
2023-04-19T07:23:34.485Z,100.00
2023-04-19T07:26:19.327Z,100.00
2023-04-19T07:29:04.662Z,100.00
2023-04-19T07:31:49.496Z,100.00
2023-04-19T07:34:34.503Z,100.00
2023-04-19T07:37:19.408Z,100.00
2023-04-19T07:40:05.422Z,100.00
2023-04-19T07:42:50.259Z,100.00
2023-04-19T07:45:35.474Z,100.00
2023-04-19T07:48:20.665Z,100.00
2023-04-19T07:51:10.313Z,100.00
2023-04-19T07:53:55.398Z,100.00
2023-04-19T07:56:40.084Z,100.00
2023-04-19T07:59:25.565Z,100.00
2023-04-19T08:02:10.553Z,100.00
2023-04-19T08:04:56.454Z,100.00
2023-04-19T08:07:41.302Z,100.00
2023-04-19T08:10:28.531Z,100.00
2023-04-19T08:13:13.577Z,100.00
2023-04-19T08:18:48.388Z,100.00
2023-04-19T08:21:40.749Z,100.00
2023-04-19T08:24:26.790Z,100.00
2023-04-19T08:27:11.932Z,95.50
2023-04-19T08:29:56.749Z,91.15
2023-04-19T08:32:41.423Z,87.09
2023-04-19T08:35:27.097Z,88.10
2023-04-19T08:38:11.772Z,80.63
2023-04-19T08:40:57.187Z,86.33
2023-04-19T08:43:43.645Z,79.03
2023-04-19T08:46:28.942Z,77.02
2023-04-19T08:49:15.178Z,57.49
2023-04-19T08:52:01.328Z,62.34
2023-04-19T08:54:46.554Z,70.26
2023-04-19T08:57:32.581Z,56.77
2023-04-19T09:00:18.120Z,64.01
2023-04-19T09:03:03.595Z,61.35
2023-04-19T09:05:48.870Z,53.16
2023-04-19T09:08:33.810Z,64.82
2023-04-19T09:11:20.061Z,60.85
2023-04-19T09:14:09.523Z,56.15
2023-04-19T09:17:11.492Z,61.16
2023-04-19T09:19:56.995Z,62.63
2023-04-19T09:22:41.912Z,57.52
2023-04-19T09:28:15.336Z,52.71
2023-04-19T09:31:33.005Z,53.38
2023-04-19T09:34:19.399Z,51.92
2023-04-19T09:37:21.516Z,44.62
2023-04-19T09:40:26.713Z,47.13
2023-04-19T09:46:02.645Z,45.68
2023-04-19T09:48:47.351Z,40.93
2023-04-19T09:51:41.242Z,47.05
2023-04-19T09:54:30.314Z,45.94
2023-04-19T09:57:16.151Z,46.20
2023-04-19T10:00:02.168Z,44.88
2023-04-19T10:02:54.284Z,46.56
2023-04-19T10:05:43.113Z,47.11
2023-04-19T10:08:28.661Z,46.70
2023-04-19T10:11:13.682Z,47.38
2023-04-19T10:14:01.592Z,48.71
2023-04-19T10:16:47.141Z,47.59
2023-04-19T10:19:36.021Z,50.03
2023-04-19T10:22:21.244Z,47.93
2023-04-19T10:25:12.732Z,49.20
2023-04-19T10:27:57.913Z,50.54
2023-04-19T10:30:53.521Z,47.08
2023-04-19T10:33:39.722Z,46.89
2023-04-19T10:36:27.279Z,48.36
2023-04-19T10:39:42.450Z,48.43
2023-04-19T10:43:12.622Z,46.25
2023-04-19T10:46:23.066Z,42.44
2023-04-19T10:49:09.644Z,41.46
2023-04-19T10:51:59.875Z,43.26
2023-04-19T10:54:44.763Z,45.25
2023-04-19T10:58:05.348Z,42.99
2023-04-19T11:00:50.518Z,46.78
2023-04-19T11:03:44.975Z,46.17
2023-04-19T11:06:30.804Z,43.86
2023-04-19T11:09:29.924Z,43.91
2023-04-19T11:12:16.661Z,41.79
2023-04-19T11:15:02.716Z,43.74
2023-04-19T11:18:00.909Z,41.80
2023-04-19T11:20:53.513Z,43.96
2023-04-19T11:23:38.632Z,43.56
2023-04-19T11:26:23.804Z,42.22
2023-04-19T11:29:09.593Z,44.97
2023-04-19T11:31:54.640Z,44.38
2023-04-19T11:34:40.492Z,41.50
2023-04-19T11:37:25.344Z,42.85
2023-04-19T11:40:15.829Z,42.40
2023-04-19T11:43:03.019Z,45.00
2023-04-19T11:45:48.149Z,44.30
2023-04-19T11:48:33.428Z,44.55
2023-04-19T11:51:18.927Z,44.80
2023-04-19T11:54:13.783Z,45.60
2023-04-19T11:57:04.923Z,45.68
2023-04-19T12:00:29.006Z,43.95
2023-04-19T12:03:14.534Z,44.46
2023-04-19T12:06:03.313Z,44.53
2023-04-19T12:08:49.894Z,43.98
2023-04-19T12:11:46.529Z,43.43
2023-04-19T12:14:31.797Z,43.43
2023-04-19T12:17:17.005Z,43.53
2023-04-19T12:20:02.041Z,43.27
2023-04-19T12:22:46.896Z,42.09
2023-04-19T12:25:34.604Z,40.66
2023-04-19T12:28:19.592Z,42.60
2023-04-19T12:31:04.831Z,41.52
2023-04-19T12:33:50.118Z,40.65
2023-04-19T12:36:35.162Z,40.02
2023-04-19T12:39:20.004Z,40.31
2023-04-19T12:42:06.113Z,39.37
2023-04-19T12:44:50.984Z,40.43
2023-04-19T12:47:36.136Z,40.18
2023-04-19T12:50:21.110Z,38.92
2023-04-19T12:53:06.995Z,39.02
2023-04-19T12:55:52.076Z,38.78
2023-04-19T12:58:36.730Z,38.16
2023-04-19T13:01:21.860Z,38.63
2023-04-19T13:04:11.593Z,38.19
2023-04-19T13:06:56.762Z,38.28
2023-04-19T13:09:41.680Z,38.08
2023-04-19T13:12:27.988Z,39.20
2023-04-19T13:15:12.850Z,37.92
2023-04-19T13:17:57.987Z,37.49
2023-04-19T13:20:42.566Z,37.70
2023-04-19T13:23:27.806Z,37.20
2023-04-19T13:26:12.541Z,37.23
2023-04-19T13:28:57.662Z,38.34
2023-04-19T13:31:43.624Z,36.48
2023-04-19T13:34:28.842Z,37.30
2023-04-19T13:37:13.948Z,35.47
2023-04-19T13:40:10.518Z,36.21
2023-04-19T13:43:00.384Z,36.29
2023-04-19T13:45:45.522Z,35.86
2023-04-19T13:48:30.396Z,35.62
2023-04-19T13:51:15.277Z,35.28
2023-04-19T13:54:00.306Z,35.49
2023-04-19T13:56:45.338Z,34.48
2023-04-19T13:59:30.316Z,34.72
2023-04-19T14:02:15.181Z,33.49
2023-04-19T14:05:00.234Z,33.88
2023-04-19T14:07:45.067Z,32.86
2023-04-19T14:10:30.267Z,34.04
2023-04-19T14:13:15.073Z,32.12
2023-04-19T14:16:00.494Z,32.82
2023-04-19T14:18:45.517Z,33.21
2023-04-19T14:21:31.372Z,33.36
2023-04-19T14:24:16.588Z,32.79
2023-04-19T14:29:49.556Z,32.23
2023-04-19T14:32:34.646Z,33.51
2023-04-19T14:35:20.133Z,33.30
2023-04-19T14:38:04.742Z,33.06
2023-04-19T14:40:49.507Z,32.99
2023-04-19T14:43:35.025Z,33.42
2023-04-19T14:46:19.700Z,32.33
2023-04-19T14:49:05.926Z,32.71
2023-04-19T14:51:52.109Z,32.75
2023-04-19T14:54:37.266Z,32.26
2023-04-19T14:57:21.925Z,32.60
2023-04-19T15:00:07.793Z,32.10
2023-04-19T15:02:53.073Z,31.22
2023-04-19T15:05:38.435Z,31.65
2023-04-19T15:08:30.166Z,30.95
2023-04-19T15:11:16.140Z,30.96
2023-04-19T15:14:00.861Z,30.90
2023-04-19T15:16:46.298Z,31.27
2023-04-19T15:19:32.112Z,31.08
2023-04-19T15:22:17.963Z,31.56
2023-04-19T15:25:03.621Z,30.78
2023-04-19T15:27:48.382Z,31.12
2023-04-19T15:30:33.359Z,32.21
2023-04-19T15:33:18.181Z,32.50
2023-04-19T15:36:04.043Z,32.61
2023-04-19T15:38:49.169Z,32.71
2023-04-19T15:41:34.173Z,32.83
2023-04-19T15:44:18.998Z,32.77
2023-04-19T15:47:04.306Z,32.29
2023-04-19T15:49:49.398Z,32.33
2023-04-19T15:52:34.424Z,32.45
2023-04-19T15:55:19.148Z,32.50
2023-04-19T15:58:05.034Z,32.97
2023-04-19T16:00:50.129Z,33.11
2023-04-19T16:03:35.389Z,32.62
2023-04-19T16:06:22.899Z,33.07
2023-04-19T16:09:08.935Z,32.79
2023-04-19T16:11:54.131Z,32.61
2023-04-19T16:14:38.892Z,32.55
2023-04-19T16:17:24.189Z,32.72
2023-04-19T16:20:09.467Z,33.11
2023-04-19T16:22:54.664Z,32.87
2023-04-19T16:25:41.086Z,32.89
2023-04-19T16:28:25.949Z,33.33
2023-04-19T16:31:11.973Z,34.30
2023-04-19T16:33:56.757Z,34.07
2023-04-19T16:36:44.568Z,33.98
2023-04-19T16:39:29.254Z,34.30
2023-04-19T16:42:14.031Z,34.33
2023-04-19T16:44:59.025Z,34.26
2023-04-19T16:47:45.654Z,33.82
2023-04-19T16:50:30.815Z,33.87
2023-04-19T16:53:15.760Z,33.78
2023-04-19T16:56:03.354Z,33.86
2023-04-19T16:58:49.970Z,34.27
2023-04-19T17:01:35.031Z,34.66
2023-04-19T17:04:20.009Z,35.04
2023-04-19T17:07:05.208Z,35.38
2023-04-19T17:09:50.197Z,34.82
2023-04-19T17:12:35.434Z,35.41
2023-04-19T17:15:20.439Z,35.80
2023-04-19T17:18:05.547Z,35.46
2023-04-19T17:20:50.354Z,35.61
2023-04-19T17:23:35.626Z,34.45
2023-04-19T17:26:20.969Z,34.34
2023-04-19T17:29:06.178Z,34.52
2023-04-19T17:31:51.322Z,35.17
2023-04-19T17:34:37.149Z,35.12
2023-04-19T17:37:22.394Z,35.49
2023-04-19T17:40:07.653Z,35.29
2023-04-19T17:42:52.612Z,35.15
2023-04-19T17:45:37.522Z,35.21
2023-04-19T17:48:22.599Z,35.40
2023-04-19T17:51:07.683Z,36.41
2023-04-19T17:53:52.829Z,35.83
2023-04-19T17:56:37.709Z,35.59
2023-04-19T17:59:22.825Z,35.12
2023-04-19T18:02:09.678Z,34.92
2023-04-19T18:04:55.621Z,33.75
2023-04-19T18:07:41.318Z,34.43
2023-04-19T18:10:26.552Z,34.37
2023-04-19T18:13:11.389Z,34.49
2023-04-19T18:15:56.680Z,34.37
2023-04-19T18:18:41.478Z,34.78
2023-04-19T18:21:27.093Z,34.67
2023-04-19T18:24:12.016Z,34.53
2023-04-19T18:26:58.120Z,34.62
2023-04-19T18:29:43.331Z,34.98
2023-04-19T18:32:29.983Z,36.06
2023-04-19T18:35:17.730Z,35.21
2023-04-19T18:38:02.647Z,35.40
2023-04-19T18:40:47.554Z,36.86
2023-04-19T18:43:32.675Z,36.26
2023-04-19T18:46:17.572Z,36.86
2023-04-19T18:49:02.669Z,36.78
2023-04-19T18:51:47.559Z,36.58
2023-04-19T18:54:32.419Z,37.34
2023-04-19T19:00:10.809Z,36.77
2023-04-19T19:02:57.439Z,37.67
2023-04-19T19:05:42.383Z,38.52
2023-04-19T19:08:27.839Z,37.91
2023-04-19T19:11:37.220Z,38.23
2023-04-19T19:14:17.464Z,39.02
2023-04-19T19:17:03.497Z,38.64
2023-04-19T19:19:48.181Z,38.98
2023-04-19T19:22:34.081Z,39.02
2023-04-19T19:25:19.166Z,39.07
2023-04-19T19:28:09.168Z,39.42
2023-04-19T19:30:54.864Z,39.71
2023-04-19T19:33:40.811Z,40.47
2023-04-19T19:36:26.166Z,40.02
2023-04-19T19:39:11.167Z,41.33
2023-04-19T19:42:05.953Z,42.63
2023-04-19T19:44:55.255Z,41.88
2023-04-19T19:47:45.160Z,42.05
2023-04-19T19:53:19.381Z,43.29
2023-04-19T19:56:11.082Z,42.97
2023-04-19T19:59:01.735Z,43.19
2023-04-19T20:01:46.670Z,42.93
2023-04-19T20:04:35.034Z,43.40
2023-04-19T20:10:10.832Z,44.55
2023-04-19T20:12:57.112Z,45.02
2023-04-19T20:15:42.168Z,44.15
2023-04-19T20:18:26.938Z,44.50
2023-04-19T20:21:12.401Z,44.38
2023-04-19T20:23:57.344Z,44.89
2023-04-19T20:26:42.191Z,44.93
2023-04-19T20:29:27.446Z,45.96
2023-04-19T20:32:12.429Z,45.88
2023-04-19T20:34:57.738Z,46.30
2023-04-19T20:37:42.595Z,47.86
2023-04-19T20:40:30.022Z,47.14
2023-04-19T20:43:16.663Z,46.93
2023-04-19T20:46:01.702Z,47.93
2023-04-19T20:48:46.444Z,48.24
2023-04-19T20:51:31.572Z,48.50
2023-04-19T20:54:17.675Z,48.32
2023-04-19T20:57:04.391Z,48.52
2023-04-19T20:59:49.265Z,48.81
2023-04-19T21:02:34.710Z,48.88
2023-04-19T21:05:19.880Z,51.33
2023-04-19T21:08:05.202Z,49.94
2023-04-19T21:10:50.299Z,50.84
2023-04-19T21:13:35.284Z,49.87
2023-04-19T21:16:20.164Z,51.77
2023-04-19T21:19:05.040Z,51.23
2023-04-19T21:21:49.852Z,51.95
2023-04-19T21:24:34.965Z,52.74
2023-04-19T21:27:19.813Z,54.27
2023-04-19T21:30:06.471Z,55.22
2023-04-19T21:32:52.427Z,55.04
2023-04-19T21:35:37.341Z,57.13
2023-04-19T21:38:22.032Z,58.93
2023-04-19T21:41:07.831Z,58.43
2023-04-19T21:43:52.933Z,62.34
2023-04-19T21:46:37.933Z,66.45
2023-04-19T21:49:23.235Z,69.23
2023-04-19T21:52:07.944Z,66.86
2023-04-19T21:54:52.970Z,67.26
2023-04-19T21:57:38.388Z,61.71
2023-04-19T22:00:24.091Z,62.22
2023-04-19T22:03:09.272Z,71.78
2023-04-19T22:05:54.074Z,72.86
2023-04-19T22:08:38.985Z,72.04
2023-04-19T22:11:24.088Z,76.38
2023-04-19T22:14:09.142Z,74.85
2023-04-19T22:16:54.854Z,78.46
2023-04-19T22:19:39.984Z,77.01
2023-04-19T22:22:25.513Z,74.40
2023-04-19T22:25:10.872Z,79.85
2023-04-19T22:27:55.873Z,75.02
2023-04-19T22:30:40.748Z,79.53
2023-04-19T22:33:26.071Z,81.42
2023-04-19T22:36:11.227Z,80.12
2023-04-19T22:38:56.063Z,75.00
2023-04-19T22:41:40.980Z,80.25
2023-04-19T22:44:26.046Z,80.13
2023-04-19T22:47:11.729Z,82.84
2023-04-19T22:49:56.758Z,81.60
2023-04-19T22:52:42.507Z,84.91
2023-04-19T22:55:27.244Z,86.39
2023-04-19T22:58:12.012Z,77.38
2023-04-19T23:00:57.231Z,79.42
2023-04-19T23:03:41.869Z,85.03
2023-04-19T23:06:28.801Z,85.89
2023-04-19T23:09:14.293Z,87.01
2023-04-19T23:12:00.421Z,80.51
2023-04-19T23:14:48.177Z,84.12
2023-04-19T23:17:33.061Z,83.82
2023-04-19T23:20:18.672Z,87.06
2023-04-19T23:23:03.458Z,91.21
2023-04-19T23:25:48.616Z,86.98
2023-04-19T23:28:33.410Z,91.12
2023-04-19T23:31:18.274Z,90.79
2023-04-19T23:34:03.316Z,83.36
2023-04-19T23:36:48.138Z,84.01
2023-04-19T23:39:33.224Z,87.35
2023-04-19T23:42:18.148Z,86.81
2023-04-19T23:45:03.570Z,81.21
2023-04-19T23:47:48.469Z,83.02
2023-04-19T23:50:33.467Z,80.90
2023-04-19T23:53:18.288Z,83.52
2023-04-19T23:56:03.396Z,89.54
2023-04-19T23:58:48.357Z,79.46
